sensor_id;sensor_type;location;lat;lon;timestamp;P1;durP1;ratioP1;P2;durP2;ratioP2
51036;SDS011;37064;59.346;18.058;2023-05-14T00:00:39;6.53;;;4.50;;
51036;SDS011;37064;59.346;18.058;2023-05-14T00:03:05;8.70;;;4.50;;
51036;SDS011;37064;59.346;18.058;2023-05-14T00:05:31;6.63;;;4.40;;
51036;SDS011;37064;59.346;18.058;2023-05-14T00:07:57;7.25;;;4.40;;
51036;SDS011;37064;59.346;18.058;2023-05-14T00:10:23;8.25;;;4.75;;
51036;SDS011;37064;59.346;18.058;2023-05-14T00:12:50;8.88;;;4.93;;
51036;SDS011;37064;59.346;18.058;2023-05-14T00:15:16;9.10;;;5.00;;
51036;SDS011;37064;59.346;18.058;2023-05-14T00:17:42;8.38;;;5.35;;
51036;SDS011;37064;59.346;18.058;2023-05-14T00:20:08;8.25;;;4.85;;
51036;SDS011;37064;59.346;18.058;2023-05-14T00:22:36;10.77;;;5.38;;
51036;SDS011;37064;59.346;18.058;2023-05-14T00:25:02;9.00;;;4.75;;
51036;SDS011;37064;59.346;18.058;2023-05-14T00:27:28;6.78;;;4.15;;
51036;SDS011;37064;59.346;18.058;2023-05-14T00:29:54;7.43;;;4.90;;
51036;SDS011;37064;59.346;18.058;2023-05-14T00:32:20;6.47;;;4.22;;
51036;SDS011;37064;59.346;18.058;2023-05-14T00:34:46;11.77;;;4.80;;
51036;SDS011;37064;59.346;18.058;2023-05-14T00:37:12;7.25;;;4.47;;
51036;SDS011;37064;59.346;18.058;2023-05-14T00:39:38;6.80;;;4.85;;
51036;SDS011;37064;59.346;18.058;2023-05-14T00:42:04;9.77;;;4.30;;
51036;SDS011;37064;59.346;18.058;2023-05-14T00:44:30;11.32;;;4.85;;
51036;SDS011;37064;59.346;18.058;2023-05-14T00:46:57;14.65;;;5.50;;
51036;SDS011;37064;59.346;18.058;2023-05-14T00:49:23;13.10;;;4.63;;
51036;SDS011;37064;59.346;18.058;2023-05-14T00:51:50;13.38;;;6.25;;
51036;SDS011;37064;59.346;18.058;2023-05-14T00:54:16;10.00;;;4.82;;
51036;SDS011;37064;59.346;18.058;2023-05-14T00:56:44;11.25;;;4.82;;
51036;SDS011;37064;59.346;18.058;2023-05-14T00:59:10;11.30;;;4.70;;
51036;SDS011;37064;59.346;18.058;2023-05-14T01:01:36;9.38;;;4.95;;
51036;SDS011;37064;59.346;18.058;2023-05-14T01:04:02;8.73;;;5.03;;
51036;SDS011;37064;59.346;18.058;2023-05-14T01:09:25;9.23;;;5.15;;
51036;SDS011;37064;59.346;18.058;2023-05-14T01:11:59;7.03;;;5.25;;
51036;SDS011;37064;59.346;18.058;2023-05-14T01:14:31;10.30;;;4.97;;
51036;SDS011;37064;59.346;18.058;2023-05-14T01:16:58;11.27;;;5.93;;
51036;SDS011;37064;59.346;18.058;2023-05-14T01:19:39;7.90;;;5.57;;
51036;SDS011;37064;59.346;18.058;2023-05-14T01:22:06;8.25;;;4.80;;
51036;SDS011;37064;59.346;18.058;2023-05-14T01:24:32;10.13;;;5.40;;
51036;SDS011;37064;59.346;18.058;2023-05-14T01:27:14;7.60;;;5.45;;
51036;SDS011;37064;59.346;18.058;2023-05-14T01:29:42;8.45;;;5.07;;
51036;SDS011;37064;59.346;18.058;2023-05-14T01:32:10;12.60;;;5.43;;
51036;SDS011;37064;59.346;18.058;2023-05-14T01:34:37;10.20;;;5.50;;
51036;SDS011;37064;59.346;18.058;2023-05-14T01:37:05;6.70;;;4.75;;
51036;SDS011;37064;59.346;18.058;2023-05-14T01:39:31;8.98;;;5.25;;
51036;SDS011;37064;59.346;18.058;2023-05-14T01:41:57;8.98;;;4.80;;
51036;SDS011;37064;59.346;18.058;2023-05-14T01:44:24;10.10;;;4.47;;
51036;SDS011;37064;59.346;18.058;2023-05-14T01:46:50;9.02;;;4.78;;
51036;SDS011;37064;59.346;18.058;2023-05-14T01:49:16;10.10;;;4.80;;
51036;SDS011;37064;59.346;18.058;2023-05-14T01:51:43;8.43;;;4.97;;
51036;SDS011;37064;59.346;18.058;2023-05-14T01:54:09;9.73;;;5.18;;
51036;SDS011;37064;59.346;18.058;2023-05-14T01:56:35;9.20;;;5.07;;
51036;SDS011;37064;59.346;18.058;2023-05-14T01:59:01;8.93;;;5.85;;
51036;SDS011;37064;59.346;18.058;2023-05-14T02:01:27;7.72;;;4.95;;
51036;SDS011;37064;59.346;18.058;2023-05-14T02:03:53;7.60;;;5.07;;
51036;SDS011;37064;59.346;18.058;2023-05-14T02:06:19;7.03;;;4.57;;
51036;SDS011;37064;59.346;18.058;2023-05-14T02:08:45;17.88;;;6.80;;
51036;SDS011;37064;59.346;18.058;2023-05-14T02:11:11;9.48;;;5.90;;
51036;SDS011;37064;59.346;18.058;2023-05-14T02:13:37;6.82;;;4.43;;
51036;SDS011;37064;59.346;18.058;2023-05-14T02:16:03;6.78;;;4.57;;
51036;SDS011;37064;59.346;18.058;2023-05-14T02:18:30;6.95;;;4.97;;
51036;SDS011;37064;59.346;18.058;2023-05-14T02:20:55;7.13;;;4.35;;
51036;SDS011;37064;59.346;18.058;2023-05-14T02:23:22;8.25;;;4.97;;
51036;SDS011;37064;59.346;18.058;2023-05-14T02:25:48;8.52;;;5.57;;
51036;SDS011;37064;59.346;18.058;2023-05-14T02:28:14;9.55;;;4.97;;
51036;SDS011;37064;59.346;18.058;2023-05-14T02:30:40;7.00;;;5.20;;
51036;SDS011;37064;59.346;18.058;2023-05-14T02:33:06;9.70;;;5.72;;
51036;SDS011;37064;59.346;18.058;2023-05-14T02:35:31;7.47;;;5.00;;
51036;SDS011;37064;59.346;18.058;2023-05-14T02:37:57;9.80;;;5.43;;
51036;SDS011;37064;59.346;18.058;2023-05-14T02:40:24;9.27;;;4.60;;
51036;SDS011;37064;59.346;18.058;2023-05-14T02:42:50;13.02;;;5.35;;
51036;SDS011;37064;59.346;18.058;2023-05-14T02:45:16;7.78;;;5.03;;
51036;SDS011;37064;59.346;18.058;2023-05-14T02:47:42;12.23;;;5.10;;
51036;SDS011;37064;59.346;18.058;2023-05-14T02:50:08;9.40;;;5.28;;
51036;SDS011;37064;59.346;18.058;2023-05-14T02:52:34;10.25;;;4.63;;
51036;SDS011;37064;59.346;18.058;2023-05-14T02:55:00;8.15;;;5.15;;
51036;SDS011;37064;59.346;18.058;2023-05-14T02:57:26;7.10;;;4.95;;
51036;SDS011;37064;59.346;18.058;2023-05-14T02:59:52;8.38;;;5.15;;
51036;SDS011;37064;59.346;18.058;2023-05-14T03:02:18;7.47;;;4.95;;
51036;SDS011;37064;59.346;18.058;2023-05-14T03:04:44;14.23;;;5.78;;
51036;SDS011;37064;59.346;18.058;2023-05-14T03:07:10;9.40;;;4.25;;
51036;SDS011;37064;59.346;18.058;2023-05-14T03:09:36;9.02;;;4.60;;
51036;SDS011;37064;59.346;18.058;2023-05-14T03:12:02;7.55;;;4.30;;
51036;SDS011;37064;59.346;18.058;2023-05-14T03:14:28;7.65;;;4.97;;
51036;SDS011;37064;59.346;18.058;2023-05-14T03:16:54;9.57;;;5.10;;
51036;SDS011;37064;59.346;18.058;2023-05-14T03:19:20;6.75;;;4.00;;
51036;SDS011;37064;59.346;18.058;2023-05-14T03:21:46;7.03;;;4.75;;
51036;SDS011;37064;59.346;18.058;2023-05-14T03:24:13;9.18;;;4.95;;
51036;SDS011;37064;59.346;18.058;2023-05-14T03:26:40;8.73;;;4.50;;
51036;SDS011;37064;59.346;18.058;2023-05-14T03:29:05;10.43;;;4.95;;
51036;SDS011;37064;59.346;18.058;2023-05-14T03:31:32;7.38;;;4.20;;
51036;SDS011;37064;59.346;18.058;2023-05-14T03:33:58;6.03;;;4.60;;
51036;SDS011;37064;59.346;18.058;2023-05-14T03:36:24;7.40;;;4.47;;
51036;SDS011;37064;59.346;18.058;2023-05-14T03:38:50;5.32;;;4.15;;
51036;SDS011;37064;59.346;18.058;2023-05-14T03:41:16;8.95;;;4.60;;
51036;SDS011;37064;59.346;18.058;2023-05-14T03:43:43;8.02;;;5.07;;
51036;SDS011;37064;59.346;18.058;2023-05-14T03:46:09;8.90;;;4.60;;
51036;SDS011;37064;59.346;18.058;2023-05-14T03:48:36;9.13;;;4.32;;
51036;SDS011;37064;59.346;18.058;2023-05-14T03:51:02;9.93;;;4.22;;
51036;SDS011;37064;59.346;18.058;2023-05-14T03:53:27;6.85;;;4.10;;
51036;SDS011;37064;59.346;18.058;2023-05-14T03:55:53;6.55;;;4.00;;
51036;SDS011;37064;59.346;18.058;2023-05-14T03:58:20;6.82;;;4.40;;
51036;SDS011;37064;59.346;18.058;2023-05-14T04:00:46;5.90;;;4.25;;
51036;SDS011;37064;59.346;18.058;2023-05-14T04:03:12;11.05;;;5.05;;
51036;SDS011;37064;59.346;18.058;2023-05-14T04:05:38;8.50;;;4.30;;
51036;SDS011;37064;59.346;18.058;2023-05-14T04:08:04;8.93;;;3.97;;
51036;SDS011;37064;59.346;18.058;2023-05-14T04:10:30;8.77;;;3.85;;
51036;SDS011;37064;59.346;18.058;2023-05-14T04:12:56;8.68;;;3.55;;
51036;SDS011;37064;59.346;18.058;2023-05-14T04:15:22;7.55;;;4.38;;
51036;SDS011;37064;59.346;18.058;2023-05-14T04:17:48;6.78;;;3.67;;
51036;SDS011;37064;59.346;18.058;2023-05-14T04:20:14;7.10;;;3.47;;
51036;SDS011;37064;59.346;18.058;2023-05-14T04:22:40;4.70;;;3.80;;
51036;SDS011;37064;59.346;18.058;2023-05-14T04:25:06;7.43;;;3.83;;
51036;SDS011;37064;59.346;18.058;2023-05-14T04:27:32;6.90;;;3.47;;
51036;SDS011;37064;59.346;18.058;2023-05-14T04:29:59;6.32;;;3.60;;
51036;SDS011;37064;59.346;18.058;2023-05-14T04:32:25;7.25;;;4.32;;
51036;SDS011;37064;59.346;18.058;2023-05-14T04:34:51;9.50;;;3.97;;
51036;SDS011;37064;59.346;18.058;2023-05-14T04:37:17;12.75;;;4.30;;
51036;SDS011;37064;59.346;18.058;2023-05-14T04:39:43;7.95;;;3.92;;
51036;SDS011;37064;59.346;18.058;2023-05-14T04:42:09;7.20;;;3.85;;
51036;SDS011;37064;59.346;18.058;2023-05-14T04:44:35;7.93;;;4.05;;
51036;SDS011;37064;59.346;18.058;2023-05-14T04:47:02;6.65;;;4.22;;
51036;SDS011;37064;59.346;18.058;2023-05-14T04:49:28;7.43;;;3.97;;
51036;SDS011;37064;59.346;18.058;2023-05-14T04:51:54;11.20;;;4.30;;
51036;SDS011;37064;59.346;18.058;2023-05-14T04:54:20;7.40;;;4.35;;
51036;SDS011;37064;59.346;18.058;2023-05-14T04:56:46;7.28;;;3.78;;
51036;SDS011;37064;59.346;18.058;2023-05-14T04:59:12;7.15;;;4.88;;
51036;SDS011;37064;59.346;18.058;2023-05-14T05:01:38;11.70;;;3.60;;
51036;SDS011;37064;59.346;18.058;2023-05-14T05:04:04;7.07;;;3.75;;
51036;SDS011;37064;59.346;18.058;2023-05-14T05:06:30;8.38;;;3.95;;
51036;SDS011;37064;59.346;18.058;2023-05-14T05:08:56;6.60;;;4.50;;
51036;SDS011;37064;59.346;18.058;2023-05-14T05:11:22;9.18;;;4.72;;
51036;SDS011;37064;59.346;18.058;2023-05-14T05:13:48;7.15;;;3.28;;
51036;SDS011;37064;59.346;18.058;2023-05-14T05:16:15;8.82;;;4.40;;
51036;SDS011;37064;59.346;18.058;2023-05-14T05:18:40;8.75;;;4.32;;
51036;SDS011;37064;59.346;18.058;2023-05-14T05:21:08;6.10;;;3.80;;
51036;SDS011;37064;59.346;18.058;2023-05-14T05:23:34;6.43;;;4.10;;
51036;SDS011;37064;59.346;18.058;2023-05-14T05:26:00;12.82;;;5.50;;
51036;SDS011;37064;59.346;18.058;2023-05-14T05:28:26;14.57;;;4.47;;
51036;SDS011;37064;59.346;18.058;2023-05-14T05:30:52;8.20;;;3.92;;
51036;SDS011;37064;59.346;18.058;2023-05-14T05:33:18;9.80;;;4.72;;
51036;SDS011;37064;59.346;18.058;2023-05-14T05:35:44;7.20;;;4.10;;
51036;SDS011;37064;59.346;18.058;2023-05-14T05:38:12;10.40;;;4.20;;
51036;SDS011;37064;59.346;18.058;2023-05-14T05:40:39;10.65;;;4.88;;
51036;SDS011;37064;59.346;18.058;2023-05-14T05:43:05;8.85;;;4.20;;
51036;SDS011;37064;59.346;18.058;2023-05-14T05:45:31;9.25;;;4.15;;
51036;SDS011;37064;59.346;18.058;2023-05-14T05:47:58;10.35;;;5.32;;
51036;SDS011;37064;59.346;18.058;2023-05-14T05:50:24;11.05;;;5.60;;
51036;SDS011;37064;59.346;18.058;2023-05-14T05:52:50;10.00;;;5.07;;
51036;SDS011;37064;59.346;18.058;2023-05-14T05:55:17;10.02;;;4.70;;
51036;SDS011;37064;59.346;18.058;2023-05-14T05:57:43;9.68;;;5.47;;
51036;SDS011;37064;59.346;18.058;2023-05-14T06:00:09;9.93;;;4.88;;
51036;SDS011;37064;59.346;18.058;2023-05-14T06:02:39;10.13;;;5.40;;
51036;SDS011;37064;59.346;18.058;2023-05-14T06:05:06;8.43;;;4.68;;
51036;SDS011;37064;59.346;18.058;2023-05-14T06:07:32;8.45;;;4.25;;
51036;SDS011;37064;59.346;18.058;2023-05-14T06:09:58;6.50;;;4.53;;
51036;SDS011;37064;59.346;18.058;2023-05-14T06:12:24;9.23;;;4.30;;
51036;SDS011;37064;59.346;18.058;2023-05-14T06:14:50;9.32;;;4.32;;
51036;SDS011;37064;59.346;18.058;2023-05-14T06:17:17;10.38;;;5.25;;
51036;SDS011;37064;59.346;18.058;2023-05-14T06:19:43;7.88;;;4.30;;
51036;SDS011;37064;59.346;18.058;2023-05-14T06:22:09;9.77;;;3.95;;
51036;SDS011;37064;59.346;18.058;2023-05-14T06:24:35;5.32;;;4.13;;
51036;SDS011;37064;59.346;18.058;2023-05-14T06:27:00;7.55;;;4.30;;
51036;SDS011;37064;59.346;18.058;2023-05-14T06:29:26;11.35;;;3.97;;
51036;SDS011;37064;59.346;18.058;2023-05-14T06:31:52;7.70;;;4.13;;
51036;SDS011;37064;59.346;18.058;2023-05-14T06:34:18;5.95;;;3.40;;
51036;SDS011;37064;59.346;18.058;2023-05-14T06:36:44;6.60;;;4.13;;
51036;SDS011;37064;59.346;18.058;2023-05-14T06:39:11;7.85;;;4.30;;
51036;SDS011;37064;59.346;18.058;2023-05-14T06:41:37;8.40;;;4.15;;
51036;SDS011;37064;59.346;18.058;2023-05-14T06:44:03;7.38;;;3.60;;
51036;SDS011;37064;59.346;18.058;2023-05-14T06:46:29;6.95;;;3.58;;
51036;SDS011;37064;59.346;18.058;2023-05-14T06:48:55;4.68;;;3.35;;
51036;SDS011;37064;59.346;18.058;2023-05-14T06:51:21;5.22;;;3.83;;
51036;SDS011;37064;59.346;18.058;2023-05-14T06:53:47;9.18;;;3.25;;
51036;SDS011;37064;59.346;18.058;2023-05-14T06:56:13;10.88;;;3.83;;
51036;SDS011;37064;59.346;18.058;2023-05-14T06:58:39;8.63;;;3.70;;
51036;SDS011;37064;59.346;18.058;2023-05-14T07:01:05;8.63;;;3.33;;
51036;SDS011;37064;59.346;18.058;2023-05-14T07:03:31;6.43;;;3.97;;
51036;SDS011;37064;59.346;18.058;2023-05-14T07:05:57;9.52;;;4.38;;
51036;SDS011;37064;59.346;18.058;2023-05-14T07:08:23;5.70;;;3.42;;
51036;SDS011;37064;59.346;18.058;2023-05-14T07:10:49;6.05;;;3.72;;
51036;SDS011;37064;59.346;18.058;2023-05-14T07:13:15;8.23;;;3.60;;
51036;SDS011;37064;59.346;18.058;2023-05-14T07:15:41;8.48;;;3.40;;
51036;SDS011;37064;59.346;18.058;2023-05-14T07:18:07;6.97;;;3.97;;
51036;SDS011;37064;59.346;18.058;2023-05-14T07:20:33;6.53;;;3.70;;
51036;SDS011;37064;59.346;18.058;2023-05-14T07:22:59;7.05;;;4.00;;
51036;SDS011;37064;59.346;18.058;2023-05-14T07:25:25;8.63;;;3.22;;
51036;SDS011;37064;59.346;18.058;2023-05-14T07:27:51;6.60;;;3.85;;
51036;SDS011;37064;59.346;18.058;2023-05-14T07:30:17;7.32;;;3.80;;
51036;SDS011;37064;59.346;18.058;2023-05-14T07:32:43;6.72;;;3.15;;
51036;SDS011;37064;59.346;18.058;2023-05-14T07:35:09;7.03;;;3.50;;
51036;SDS011;37064;59.346;18.058;2023-05-14T07:37:36;7.72;;;3.47;;
51036;SDS011;37064;59.346;18.058;2023-05-14T07:40:02;7.38;;;3.30;;
51036;SDS011;37064;59.346;18.058;2023-05-14T07:42:28;6.47;;;3.47;;
51036;SDS011;37064;59.346;18.058;2023-05-14T07:44:54;10.95;;;3.95;;
51036;SDS011;37064;59.346;18.058;2023-05-14T07:47:20;6.35;;;3.53;;
51036;SDS011;37064;59.346;18.058;2023-05-14T07:49:46;6.20;;;3.35;;
51036;SDS011;37064;59.346;18.058;2023-05-14T07:52:12;7.47;;;2.90;;
51036;SDS011;37064;59.346;18.058;2023-05-14T07:54:38;9.35;;;4.22;;
51036;SDS011;37064;59.346;18.058;2023-05-14T07:57:04;6.78;;;3.40;;
51036;SDS011;37064;59.346;18.058;2023-05-14T07:59:30;8.95;;;3.50;;
51036;SDS011;37064;59.346;18.058;2023-05-14T08:01:56;9.25;;;3.35;;
51036;SDS011;37064;59.346;18.058;2023-05-14T08:04:22;6.60;;;3.78;;
51036;SDS011;37064;59.346;18.058;2023-05-14T08:06:48;8.98;;;4.25;;
51036;SDS011;37064;59.346;18.058;2023-05-14T08:09:14;8.88;;;4.45;;
51036;SDS011;37064;59.346;18.058;2023-05-14T08:11:40;7.78;;;3.40;;
51036;SDS011;37064;59.346;18.058;2023-05-14T08:14:06;8.80;;;3.88;;
51036;SDS011;37064;59.346;18.058;2023-05-14T08:16:32;10.23;;;4.97;;
51036;SDS011;37064;59.346;18.058;2023-05-14T08:18:58;8.77;;;3.45;;
51036;SDS011;37064;59.346;18.058;2023-05-14T08:21:24;7.00;;;3.40;;
51036;SDS011;37064;59.346;18.058;2023-05-14T08:23:52;3.42;;;2.95;;
51036;SDS011;37064;59.346;18.058;2023-05-14T08:26:18;4.93;;;2.95;;
51036;SDS011;37064;59.346;18.058;2023-05-14T08:28:44;7.50;;;3.13;;
51036;SDS011;37064;59.346;18.058;2023-05-14T08:31:10;5.50;;;3.03;;
51036;SDS011;37064;59.346;18.058;2023-05-14T08:33:38;7.43;;;2.72;;
51036;SDS011;37064;59.346;18.058;2023-05-14T08:36:04;6.70;;;3.53;;
51036;SDS011;37064;59.346;18.058;2023-05-14T08:38:31;5.78;;;3.47;;
51036;SDS011;37064;59.346;18.058;2023-05-14T08:40:57;5.63;;;3.30;;
51036;SDS011;37064;59.346;18.058;2023-05-14T08:43:29;9.45;;;2.90;;
51036;SDS011;37064;59.346;18.058;2023-05-14T08:45:59;5.93;;;2.72;;
51036;SDS011;37064;59.346;18.058;2023-05-14T08:48:28;7.55;;;3.33;;
51036;SDS011;37064;59.346;18.058;2023-05-14T08:50:54;6.63;;;3.10;;
51036;SDS011;37064;59.346;18.058;2023-05-14T08:53:20;5.78;;;3.08;;
51036;SDS011;37064;59.346;18.058;2023-05-14T08:55:46;6.22;;;3.95;;
51036;SDS011;37064;59.346;18.058;2023-05-14T08:58:14;3.28;;;2.80;;
51036;SDS011;37064;59.346;18.058;2023-05-14T09:00:40;6.00;;;3.05;;
51036;SDS011;37064;59.346;18.058;2023-05-14T09:03:06;6.70;;;2.97;;
51036;SDS011;37064;59.346;18.058;2023-05-14T09:05:32;7.25;;;2.75;;
51036;SDS011;37064;59.346;18.058;2023-05-14T09:07:59;4.82;;;2.85;;
51036;SDS011;37064;59.346;18.058;2023-05-14T09:10:26;4.07;;;2.90;;
51036;SDS011;37064;59.346;18.058;2023-05-14T09:12:52;4.50;;;2.60;;
51036;SDS011;37064;59.346;18.058;2023-05-14T09:15:18;6.45;;;3.20;;
51036;SDS011;37064;59.346;18.058;2023-05-14T09:17:44;6.35;;;2.97;;
51036;SDS011;37064;59.346;18.058;2023-05-14T09:20:12;8.53;;;2.97;;
51036;SDS011;37064;59.346;18.058;2023-05-14T09:22:39;6.25;;;3.08;;
51036;SDS011;37064;59.346;18.058;2023-05-14T09:25:06;5.95;;;3.13;;
51036;SDS011;37064;59.346;18.058;2023-05-14T09:27:33;6.43;;;2.85;;
51036;SDS011;37064;59.346;18.058;2023-05-14T09:30:10;8.43;;;3.05;;
51036;SDS011;37064;59.346;18.058;2023-05-14T09:32:37;5.32;;;2.90;;
51036;SDS011;37064;59.346;18.058;2023-05-14T09:35:10;6.38;;;2.95;;
51036;SDS011;37064;59.346;18.058;2023-05-14T09:37:36;8.93;;;3.50;;
51036;SDS011;37064;59.346;18.058;2023-05-14T09:40:06;7.75;;;2.25;;
51036;SDS011;37064;59.346;18.058;2023-05-14T09:42:33;6.85;;;3.28;;
51036;SDS011;37064;59.346;18.058;2023-05-14T09:44:59;8.20;;;2.58;;
51036;SDS011;37064;59.346;18.058;2023-05-14T09:47:25;3.60;;;2.42;;
51036;SDS011;37064;59.346;18.058;2023-05-14T09:49:51;4.93;;;2.60;;
51036;SDS011;37064;59.346;18.058;2023-05-14T09:52:18;5.55;;;2.42;;
51036;SDS011;37064;59.346;18.058;2023-05-14T09:54:45;6.40;;;2.33;;
51036;SDS011;37064;59.346;18.058;2023-05-14T09:57:11;6.47;;;2.22;;
51036;SDS011;37064;59.346;18.058;2023-05-14T09:59:37;7.00;;;2.55;;
51036;SDS011;37064;59.346;18.058;2023-05-14T10:02:03;2.95;;;2.30;;
51036;SDS011;37064;59.346;18.058;2023-05-14T10:04:31;5.18;;;2.33;;
51036;SDS011;37064;59.346;18.058;2023-05-14T10:06:57;7.80;;;2.78;;
51036;SDS011;37064;59.346;18.058;2023-05-14T10:09:24;5.30;;;2.58;;
51036;SDS011;37064;59.346;18.058;2023-05-14T10:11:52;6.68;;;2.10;;
51036;SDS011;37064;59.346;18.058;2023-05-14T10:14:24;3.53;;;2.22;;
51036;SDS011;37064;59.346;18.058;2023-05-14T10:16:52;5.05;;;2.13;;
51036;SDS011;37064;59.346;18.058;2023-05-14T10:19:19;5.95;;;1.90;;
51036;SDS011;37064;59.346;18.058;2023-05-14T10:21:52;7.18;;;2.40;;
51036;SDS011;37064;59.346;18.058;2023-05-14T10:24:20;2.72;;;2.00;;
51036;SDS011;37064;59.346;18.058;2023-05-14T10:26:46;5.47;;;2.20;;
51036;SDS011;37064;59.346;18.058;2023-05-14T10:29:13;4.13;;;1.75;;
51036;SDS011;37064;59.346;18.058;2023-05-14T10:37:00;3.92;;;2.25;;
51036;SDS011;37064;59.346;18.058;2023-05-14T10:39:39;5.32;;;2.20;;
51036;SDS011;37064;59.346;18.058;2023-05-14T10:42:05;3.00;;;2.05;;
51036;SDS011;37064;59.346;18.058;2023-05-14T10:44:31;3.28;;;2.40;;
51036;SDS011;37064;59.346;18.058;2023-05-14T10:47:00;2.72;;;1.98;;
51036;SDS011;37064;59.346;18.058;2023-05-14T10:49:26;2.55;;;1.98;;
51036;SDS011;37064;59.346;18.058;2023-05-14T10:51:52;4.85;;;2.35;;
51036;SDS011;37064;59.346;18.058;2023-05-14T10:54:18;5.28;;;2.38;;
51036;SDS011;37064;59.346;18.058;2023-05-14T10:56:45;6.97;;;2.55;;
51036;SDS011;37064;59.346;18.058;2023-05-14T10:59:11;5.97;;;2.05;;
51036;SDS011;37064;59.346;18.058;2023-05-14T11:01:39;2.97;;;2.40;;
51036;SDS011;37064;59.346;18.058;2023-05-14T11:04:05;4.32;;;2.10;;
51036;SDS011;37064;59.346;18.058;2023-05-14T11:06:31;4.15;;;2.97;;
51036;SDS011;37064;59.346;18.058;2023-05-14T11:08:58;7.22;;;2.20;;
51036;SDS011;37064;59.346;18.058;2023-05-14T11:11:25;3.38;;;2.22;;
51036;SDS011;37064;59.346;18.058;2023-05-14T11:13:52;3.38;;;2.10;;
51036;SDS011;37064;59.346;18.058;2023-05-14T11:16:19;8.35;;;2.63;;
51036;SDS011;37064;59.346;18.058;2023-05-14T11:18:47;3.08;;;2.10;;
51036;SDS011;37064;59.346;18.058;2023-05-14T11:21:17;3.88;;;2.30;;
51036;SDS011;37064;59.346;18.058;2023-05-14T11:23:45;4.13;;;2.10;;
51036;SDS011;37064;59.346;18.058;2023-05-14T11:26:11;4.50;;;2.13;;
51036;SDS011;37064;59.346;18.058;2023-05-14T11:28:37;5.45;;;2.05;;
51036;SDS011;37064;59.346;18.058;2023-05-14T11:31:03;3.40;;;2.13;;
51036;SDS011;37064;59.346;18.058;2023-05-14T11:33:29;3.97;;;2.35;;
51036;SDS011;37064;59.346;18.058;2023-05-14T11:35:56;3.33;;;2.25;;
51036;SDS011;37064;59.346;18.058;2023-05-14T11:38:22;2.53;;;2.00;;
51036;SDS011;37064;59.346;18.058;2023-05-14T11:40:54;4.57;;;1.90;;
51036;SDS011;37064;59.346;18.058;2023-05-14T11:43:20;3.28;;;2.40;;
51036;SDS011;37064;59.346;18.058;2023-05-14T11:45:53;5.15;;;2.10;;
51036;SDS011;37064;59.346;18.058;2023-05-14T11:48:19;4.88;;;2.40;;
51036;SDS011;37064;59.346;18.058;2023-05-14T11:50:49;6.05;;;2.47;;
51036;SDS011;37064;59.346;18.058;2023-05-14T11:53:19;3.58;;;2.10;;
51036;SDS011;37064;59.346;18.058;2023-05-14T11:55:45;3.80;;;2.47;;
51036;SDS011;37064;59.346;18.058;2023-05-14T11:58:12;4.53;;;1.90;;
51036;SDS011;37064;59.346;18.058;2023-05-14T12:00:38;5.35;;;2.50;;
51036;SDS011;37064;59.346;18.058;2023-05-14T12:03:05;3.60;;;1.98;;
51036;SDS011;37064;59.346;18.058;2023-05-14T12:05:31;5.70;;;2.08;;
51036;SDS011;37064;59.346;18.058;2023-05-14T12:07:57;4.07;;;2.35;;
51036;SDS011;37064;59.346;18.058;2023-05-14T12:10:23;6.18;;;1.98;;
51036;SDS011;37064;59.346;18.058;2023-05-14T12:12:49;7.97;;;2.30;;
51036;SDS011;37064;59.346;18.058;2023-05-14T12:15:15;4.13;;;1.77;;
51036;SDS011;37064;59.346;18.058;2023-05-14T12:17:41;2.70;;;2.10;;
51036;SDS011;37064;59.346;18.058;2023-05-14T12:20:08;6.80;;;2.35;;
51036;SDS011;37064;59.346;18.058;2023-05-14T12:22:35;5.65;;;1.95;;
51036;SDS011;37064;59.346;18.058;2023-05-14T12:25:01;5.68;;;2.35;;
51036;SDS011;37064;59.346;18.058;2023-05-14T12:27:27;3.28;;;2.40;;
51036;SDS011;37064;59.346;18.058;2023-05-14T12:29:57;4.75;;;2.63;;
51036;SDS011;37064;59.346;18.058;2023-05-14T12:32:24;6.13;;;2.50;;
51036;SDS011;37064;59.346;18.058;2023-05-14T12:34:50;7.03;;;2.40;;
51036;SDS011;37064;59.346;18.058;2023-05-14T12:37:16;4.18;;;2.03;;
51036;SDS011;37064;59.346;18.058;2023-05-14T12:39:43;5.05;;;2.13;;
51036;SDS011;37064;59.346;18.058;2023-05-14T12:42:09;3.92;;;2.03;;
51036;SDS011;37064;59.346;18.058;2023-05-14T12:44:35;3.90;;;2.15;;
51036;SDS011;37064;59.346;18.058;2023-05-14T12:47:01;7.72;;;1.80;;
51036;SDS011;37064;59.346;18.058;2023-05-14T12:49:27;2.90;;;1.98;;
51036;SDS011;37064;59.346;18.058;2023-05-14T12:51:53;3.08;;;1.85;;
51036;SDS011;37064;59.346;18.058;2023-05-14T12:54:19;5.85;;;2.00;;
51036;SDS011;37064;59.346;18.058;2023-05-14T12:56:45;5.22;;;1.70;;
51036;SDS011;37064;59.346;18.058;2023-05-14T12:59:11;5.35;;;1.80;;
51036;SDS011;37064;59.346;18.058;2023-05-14T13:01:37;6.90;;;2.40;;
51036;SDS011;37064;59.346;18.058;2023-05-14T13:04:04;8.10;;;2.05;;
51036;SDS011;37064;59.346;18.058;2023-05-14T13:06:30;2.50;;;1.88;;
51036;SDS011;37064;59.346;18.058;2023-05-14T13:08:56;3.72;;;1.80;;
51036;SDS011;37064;59.346;18.058;2023-05-14T13:11:24;3.45;;;1.80;;
51036;SDS011;37064;59.346;18.058;2023-05-14T13:13:51;7.55;;;2.15;;
51036;SDS011;37064;59.346;18.058;2023-05-14T13:16:17;5.68;;;2.20;;
51036;SDS011;37064;59.346;18.058;2023-05-14T13:18:43;5.25;;;2.33;;
51036;SDS011;37064;59.346;18.058;2023-05-14T13:21:09;6.63;;;1.80;;
51036;SDS011;37064;59.346;18.058;2023-05-14T13:23:36;6.50;;;2.33;;
51036;SDS011;37064;59.346;18.058;2023-05-14T13:26:02;3.63;;;1.95;;
51036;SDS011;37064;59.346;18.058;2023-05-14T13:28:28;5.13;;;2.30;;
51036;SDS011;37064;59.346;18.058;2023-05-14T13:31:28;4.90;;;2.10;;
51036;SDS011;37064;59.346;18.058;2023-05-14T13:33:47;3.85;;;1.90;;
51036;SDS011;37064;59.346;18.058;2023-05-14T13:36:13;3.10;;;1.90;;
51036;SDS011;37064;59.346;18.058;2023-05-14T13:38:40;4.43;;;2.03;;
51036;SDS011;37064;59.346;18.058;2023-05-14T13:41:06;2.65;;;1.90;;
51036;SDS011;37064;59.346;18.058;2023-05-14T13:43:33;4.22;;;1.73;;
51036;SDS011;37064;59.346;18.058;2023-05-14T13:46:00;6.63;;;2.00;;
51036;SDS011;37064;59.346;18.058;2023-05-14T13:48:26;5.32;;;2.00;;
51036;SDS011;37064;59.346;18.058;2023-05-14T13:50:52;6.40;;;2.83;;
51036;SDS011;37064;59.346;18.058;2023-05-14T13:53:18;3.78;;;2.28;;
51036;SDS011;37064;59.346;18.058;2023-05-14T13:55:44;8.20;;;2.35;;
51036;SDS011;37064;59.346;18.058;2023-05-14T13:58:10;2.67;;;1.80;;
51036;SDS011;37064;59.346;18.058;2023-05-14T14:00:36;5.82;;;1.52;;
51036;SDS011;37064;59.346;18.058;2023-05-14T14:03:03;7.63;;;2.38;;
51036;SDS011;37064;59.346;18.058;2023-05-14T14:05:29;5.97;;;2.00;;
51036;SDS011;37064;59.346;18.058;2023-05-14T14:07:55;3.30;;;2.20;;
51036;SDS011;37064;59.346;18.058;2023-05-14T14:10:21;3.55;;;1.77;;
51036;SDS011;37064;59.346;18.058;2023-05-14T14:12:48;3.33;;;2.05;;
51036;SDS011;37064;59.346;18.058;2023-05-14T14:15:14;6.25;;;2.10;;
51036;SDS011;37064;59.346;18.058;2023-05-14T14:17:40;4.00;;;2.13;;
51036;SDS011;37064;59.346;18.058;2023-05-14T14:20:06;4.50;;;2.45;;
51036;SDS011;37064;59.346;18.058;2023-05-14T14:22:33;5.70;;;2.60;;
51036;SDS011;37064;59.346;18.058;2023-05-14T14:24:59;6.72;;;3.08;;
51036;SDS011;37064;59.346;18.058;2023-05-14T14:27:25;7.20;;;4.80;;
51036;SDS011;37064;59.346;18.058;2023-05-14T14:29:51;12.07;;;5.55;;
51036;SDS011;37064;59.346;18.058;2023-05-14T14:32:17;9.98;;;3.10;;
51036;SDS011;37064;59.346;18.058;2023-05-14T14:34:44;6.47;;;2.10;;
51036;SDS011;37064;59.346;18.058;2023-05-14T14:37:10;3.78;;;2.10;;